sensor_id;sensor_type;location;lat;lon;timestamp;pressure;altitude;pressure_sealevel;temperature;humidity
62025;BME280;47978;49.118;12.146;2023-08-31T00:02:28;96850.19;;;12.08;100.00
62025;BME280;47978;49.118;12.146;2023-08-31T00:06:31;96861.28;;;12.08;100.00
62025;BME280;47978;49.118;12.146;2023-08-31T00:10:33;96863.69;;;12.09;100.00
62025;BME280;47978;49.118;12.146;2023-08-31T00:14:35;96868.38;;;12.26;100.00
62025;BME280;47978;49.118;12.146;2023-08-31T00:18:36;96863.63;;;12.35;100.00
62025;BME280;47978;49.118;12.146;2023-08-31T00:22:39;96870.59;;;12.42;100.00
62025;BME280;47978;49.118;12.146;2023-08-31T00:26:41;96872.88;;;12.40;100.00
62025;BME280;47978;49.118;12.146;2023-08-31T00:30:42;96872.22;;;12.43;100.00
62025;BME280;47978;49.118;12.146;2023-08-31T00:34:44;96852.84;;;12.34;100.00
62025;BME280;47978;49.118;12.146;2023-08-31T00:38:47;96831.16;;;12.36;100.00
62025;BME280;47978;49.118;12.146;2023-08-31T00:42:48;96833.44;;;12.34;100.00
62025;BME280;47978;49.118;12.146;2023-08-31T00:46:50;96830.66;;;12.34;100.00
62025;BME280;47978;49.118;12.146;2023-08-31T00:50:52;96838.84;;;12.30;100.00
62025;BME280;47978;49.118;12.146;2023-08-31T00:54:55;96855.44;;;12.39;100.00
62025;BME280;47978;49.118;12.146;2023-08-31T00:58:56;96855.97;;;12.32;100.00
62025;BME280;47978;49.118;12.146;2023-08-31T01:03:01;96849.09;;;12.38;100.00
62025;BME280;47978;49.118;12.146;2023-08-31T01:07:13;96839.78;;;12.34;100.00
62025;BME280;47978;49.118;12.146;2023-08-31T01:11:26;96834.78;;;12.28;100.00
62025;BME280;47978;49.118;12.146;2023-08-31T01:15:31;96851.13;;;12.50;100.00
62025;BME280;47978;49.118;12.146;2023-08-31T01:19:51;96856.91;;;12.36;100.00
62025;BME280;47978;49.118;12.146;2023-08-31T01:23:55;96855.97;;;12.32;100.00
62025;BME280;47978;49.118;12.146;2023-08-31T01:27:58;96859.59;;;12.24;100.00
62025;BME280;47978;49.118;12.146;2023-08-31T01:31:59;96867.59;;;12.55;100.00
62025;BME280;47978;49.118;12.146;2023-08-31T01:36:03;96865.50;;;12.52;100.00
62025;BME280;47978;49.118;12.146;2023-08-31T01:40:10;96872.28;;;12.64;100.00
62025;BME280;47978;49.118;12.146;2023-08-31T01:44:15;96874.28;;;12.54;100.00
62025;BME280;47978;49.118;12.146;2023-08-31T01:48:17;96877.63;;;12.39;100.00
62025;BME280;47978;49.118;12.146;2023-08-31T01:52:19;96880.91;;;12.32;100.00
62025;BME280;47978;49.118;12.146;2023-08-31T01:56:22;96876.00;;;12.29;100.00
62025;BME280;47978;49.118;12.146;2023-08-31T02:00:24;96888.72;;;12.39;100.00
62025;BME280;47978;49.118;12.146;2023-08-31T02:04:26;96883.97;;;12.40;100.00
62025;BME280;47978;49.118;12.146;2023-08-31T02:08:28;96887.72;;;12.35;100.00
62025;BME280;47978;49.118;12.146;2023-08-31T02:12:30;96881.53;;;12.38;100.00
62025;BME280;47978;49.118;12.146;2023-08-31T02:16:32;96894.31;;;12.60;100.00
62025;BME280;47978;49.118;12.146;2023-08-31T02:20:34;96894.16;;;12.56;100.00
62025;BME280;47978;49.118;12.146;2023-08-31T02:24:35;96884.41;;;12.50;100.00
62025;BME280;47978;49.118;12.146;2023-08-31T02:28:38;96882.28;;;12.56;100.00
62025;BME280;47978;49.118;12.146;2023-08-31T02:32:40;96883.16;;;12.69;100.00
62025;BME280;47978;49.118;12.146;2023-08-31T02:36:41;96887.19;;;12.80;100.00
62025;BME280;47978;49.118;12.146;2023-08-31T02:40:46;96889.84;;;12.97;100.00
62025;BME280;47978;49.118;12.146;2023-08-31T02:44:51;96891.88;;;12.88;100.00
62025;BME280;47978;49.118;12.146;2023-08-31T02:48:53;96886.31;;;12.88;100.00
62025;BME280;47978;49.118;12.146;2023-08-31T02:52:55;96886.31;;;12.88;100.00
62025;BME280;47978;49.118;12.146;2023-08-31T02:56:56;96893.66;;;12.93;100.00
62025;BME280;47978;49.118;12.146;2023-08-31T03:01:07;96891.81;;;12.97;100.00
62025;BME280;47978;49.118;12.146;2023-08-31T03:05:09;96887.72;;;12.73;100.00
62025;BME280;47978;49.118;12.146;2023-08-31T03:09:11;96882.97;;;12.74;100.00
62025;BME280;47978;49.118;12.146;2023-08-31T03:13:12;96890.72;;;12.89;100.00
62025;BME280;47978;49.118;12.146;2023-08-31T03:17:16;96897.63;;;12.53;100.00
62025;BME280;47978;49.118;12.146;2023-08-31T03:21:17;96902.78;;;12.64;100.00
62025;BME280;47978;49.118;12.146;2023-08-31T03:25:19;96917.03;;;12.53;100.00
62025;BME280;47978;49.118;12.146;2023-08-31T03:29:20;96921.41;;;12.54;100.00
62025;BME280;47978;49.118;12.146;2023-08-31T03:33:23;96925.56;;;12.78;100.00
62025;BME280;47978;49.118;12.146;2023-08-31T03:37:25;96926.94;;;12.93;100.00
62025;BME280;47978;49.118;12.146;2023-08-31T03:41:26;96930.19;;;12.95;100.00
62025;BME280;47978;49.118;12.146;2023-08-31T03:45:28;96923.78;;;12.73;100.00
62025;BME280;47978;49.118;12.146;2023-08-31T03:49:31;96927.78;;;12.55;100.00
62025;BME280;47978;49.118;12.146;2023-08-31T03:53:33;96929.88;;;12.67;100.00
62025;BME280;47978;49.118;12.146;2023-08-31T03:57:34;96937.38;;;12.57;100.00
62025;BME280;47978;49.118;12.146;2023-08-31T04:01:36;96942.22;;;12.69;100.00
62025;BME280;47978;49.118;12.146;2023-08-31T04:05:39;96952.53;;;12.22;100.00
62025;BME280;47978;49.118;12.146;2023-08-31T04:09:40;96945.16;;;12.26;100.00
62025;BME280;47978;49.118;12.146;2023-08-31T04:13:42;96958.22;;;12.25;100.00
62025;BME280;47978;49.118;12.146;2023-08-31T04:17:43;96962.81;;;12.21;100.00
62025;BME280;47978;49.118;12.146;2023-08-31T04:21:47;96963.47;;;12.18;100.00
62025;BME280;47978;49.118;12.146;2023-08-31T04:25:48;96976.38;;;11.97;100.00
62025;BME280;47978;49.118;12.146;2023-08-31T04:29:50;96981.13;;;11.87;100.00
62025;BME280;47978;49.118;12.146;2023-08-31T04:33:51;96987.75;;;11.69;100.00
62025;BME280;47978;49.118;12.146;2023-08-31T04:37:54;96994.44;;;11.59;100.00
62025;BME280;47978;49.118;12.146;2023-08-31T04:41:56;97006.50;;;11.55;100.00
62025;BME280;47978;49.118;12.146;2023-08-31T04:45:57;97007.94;;;11.61;100.00
62025;BME280;47978;49.118;12.146;2023-08-31T04:49:59;97005.69;;;11.54;100.00
62025;BME280;47978;49.118;12.146;2023-08-31T04:54:02;97003.88;;;11.41;100.00
62025;BME280;47978;49.118;12.146;2023-08-31T04:58:04;97004.66;;;11.24;100.00
62025;BME280;47978;49.118;12.146;2023-08-31T05:02:06;97013.63;;;11.30;100.00
62025;BME280;47978;49.118;12.146;2023-08-31T05:06:07;97019.78;;;11.18;100.00
62025;BME280;47978;49.118;12.146;2023-08-31T05:10:10;97016.19;;;11.17;100.00
62025;BME280;47978;49.118;12.146;2023-08-31T05:14:12;97020.44;;;11.23;100.00
62025;BME280;47978;49.118;12.146;2023-08-31T05:18:13;97029.59;;;11.33;100.00
62025;BME280;47978;49.118;12.146;2023-08-31T05:22:15;97041.94;;;11.35;100.00
62025;BME280;47978;49.118;12.146;2023-08-31T05:26:18;97040.97;;;11.31;100.00
62025;BME280;47978;49.118;12.146;2023-08-31T05:30:19;97052.38;;;11.38;100.00
62025;BME280;47978;49.118;12.146;2023-08-31T05:34:21;97050.47;;;11.56;100.00
62025;BME280;47978;49.118;12.146;2023-08-31T05:38:23;97060.78;;;11.73;100.00
62025;BME280;47978;49.118;12.146;2023-08-31T05:42:26;97063.53;;;11.73;100.00
62025;BME280;47978;49.118;12.146;2023-08-31T05:46:27;97072.41;;;12.10;100.00
62025;BME280;47978;49.118;12.146;2023-08-31T05:50:29;97076.28;;;12.18;100.00
62025;BME280;47978;49.118;12.146;2023-08-31T05:54:31;97090.63;;;12.28;100.00
62025;BME280;47978;49.118;12.146;2023-08-31T05:58:35;97090.75;;;12.49;100.00
62025;BME280;47978;49.118;12.146;2023-08-31T06:02:37;97088.56;;;12.90;100.00
62025;BME280;47978;49.118;12.146;2023-08-31T06:06:39;97095.78;;;13.20;100.00
62025;BME280;47978;49.118;12.146;2023-08-31T06:10:40;97092.94;;;13.46;100.00
62025;BME280;47978;49.118;12.146;2023-08-31T06:14:43;97074.94;;;14.03;100.00
62025;BME280;47978;49.118;12.146;2023-08-31T06:18:45;97064.53;;;15.37;92.78
62025;BME280;47978;49.118;12.146;2023-08-31T06:22:46;97075.22;;;16.36;87.03
62025;BME280;47978;49.118;12.146;2023-08-31T06:26:48;97095.06;;;15.09;90.03
62025;BME280;47978;49.118;12.146;2023-08-31T06:30:51;97106.72;;;14.14;96.38
62025;BME280;47978;49.118;12.146;2023-08-31T06:34:52;97115.28;;;13.80;99.96
62025;BME280;47978;49.118;12.146;2023-08-31T06:38:54;97117.63;;;13.39;100.00
62025;BME280;47978;49.118;12.146;2023-08-31T06:42:55;97132.72;;;13.30;100.00
62025;BME280;47978;49.118;12.146;2023-08-31T06:46:58;97129.13;;;13.29;100.00
62025;BME280;47978;49.118;12.146;2023-08-31T06:51:00;97131.34;;;13.44;100.00
62025;BME280;47978;49.118;12.146;2023-08-31T06:55:02;97136.63;;;13.28;100.00
62025;BME280;47978;49.118;12.146;2023-08-31T06:59:03;97140.78;;;13.52;100.00
62025;BME280;47978;49.118;12.146;2023-08-31T07:03:06;97148.41;;;15.11;91.82
62025;BME280;47978;49.118;12.146;2023-08-31T07:07:08;97142.72;;;14.74;91.17
62025;BME280;47978;49.118;12.146;2023-08-31T07:11:10;97153.88;;;14.32;93.24
62025;BME280;47978;49.118;12.146;2023-08-31T07:15:11;97152.50;;;14.80;92.94
62025;BME280;47978;49.118;12.146;2023-08-31T07:19:14;97141.31;;;17.17;80.52
62025;BME280;47978;49.118;12.146;2023-08-31T07:23:16;97130.00;;;17.13;78.92
62025;BME280;47978;49.118;12.146;2023-08-31T07:27:17;97140.25;;;16.93;79.45
62025;BME280;47978;49.118;12.146;2023-08-31T07:31:19;97142.63;;;17.07;77.56
62025;BME280;47978;49.118;12.146;2023-08-31T07:35:22;97130.00;;;17.13;75.86
62025;BME280;47978;49.118;12.146;2023-08-31T07:39:23;97130.47;;;16.59;79.65
62025;BME280;47978;49.118;12.146;2023-08-31T07:43:25;97139.25;;;17.14;74.24
62025;BME280;47978;49.118;12.146;2023-08-31T07:47:27;97150.38;;;15.92;79.15
62025;BME280;47978;49.118;12.146;2023-08-31T07:51:30;97156.56;;;17.19;74.95
62025;BME280;47978;49.118;12.146;2023-08-31T07:55:31;97169.56;;;18.23;69.88
62025;BME280;47978;49.118;12.146;2023-08-31T07:59:33;97178.38;;;17.29;71.71
62025;BME280;47978;49.118;12.146;2023-08-31T08:03:34;97187.16;;;17.60;69.72
62025;BME280;47978;49.118;12.146;2023-08-31T08:07:38;97180.56;;;17.52;69.09
62025;BME280;47978;49.118;12.146;2023-08-31T08:11:39;97181.03;;;17.10;72.24
62025;BME280;47978;49.118;12.146;2023-08-31T08:15:41;97179.44;;;17.85;68.46
62025;BME280;47978;49.118;12.146;2023-08-31T08:19:42;97178.38;;;18.60;65.44
62025;BME280;47978;49.118;12.146;2023-08-31T08:23:45;97182.34;;;18.94;62.60
62025;BME280;47978;49.118;12.146;2023-08-31T08:27:47;97191.50;;;19.53;61.40
62025;BME280;47978;49.118;12.146;2023-08-31T08:31:48;97206.19;;;19.46;62.45
62025;BME280;47978;49.118;12.146;2023-08-31T08:35:50;97200.06;;;18.28;63.82
62025;BME280;47978;49.118;12.146;2023-08-31T08:39:53;97179.59;;;17.92;66.94
62025;BME280;47978;49.118;12.146;2023-08-31T08:43:54;97175.63;;;17.77;65.42
62025;BME280;47978;49.118;12.146;2023-08-31T08:47:58;97193.84;;;17.11;65.79
62025;BME280;47978;49.118;12.146;2023-08-31T08:52:00;97189.59;;;17.45;68.20
62025;BME280;47978;49.118;12.146;2023-08-31T08:56:03;97202.38;;;17.30;69.40
62025;BME280;47978;49.118;12.146;2023-08-31T09:00:06;97188.91;;;17.20;68.49
62025;BME280;47978;49.118;12.146;2023-08-31T09:04:09;97187.88;;;16.84;68.06
62025;BME280;47978;49.118;12.146;2023-08-31T09:08:11;97193.44;;;16.44;68.29
62025;BME280;47978;49.118;12.146;2023-08-31T09:12:14;97206.78;;;16.63;69.21
62025;BME280;47978;49.118;12.146;2023-08-31T09:16:23;97205.41;;;16.57;67.32
62025;BME280;47978;49.118;12.146;2023-08-31T09:20:25;97212.81;;;16.77;68.43
62025;BME280;47978;49.118;12.146;2023-08-31T09:24:27;97211.34;;;16.96;65.93
62025;BME280;47978;49.118;12.146;2023-08-31T09:28:30;97216.53;;;17.09;68.14
62025;BME280;47978;49.118;12.146;2023-08-31T09:32:31;97218.06;;;16.67;60.48
62025;BME280;47978;49.118;12.146;2023-08-31T09:36:33;97223.88;;;16.74;61.66
62025;BME280;47978;49.118;12.146;2023-08-31T09:40:35;97235.34;;;16.84;63.07
62025;BME280;47978;49.118;12.146;2023-08-31T09:44:43;97239.94;;;16.77;58.45
62025;BME280;47978;49.118;12.146;2023-08-31T09:48:45;97233.97;;;16.91;60.22
62025;BME280;47978;49.118;12.146;2023-08-31T09:52:50;97235.50;;;17.16;62.09
62025;BME280;47978;49.118;12.146;2023-08-31T09:56:55;97232.66;;;17.28;63.81
62025;BME280;47978;49.118;12.146;2023-08-31T10:00:59;97232.41;;;17.49;63.78
62025;BME280;47978;49.118;12.146;2023-08-31T10:05:01;97235.47;;;17.44;65.61
62025;BME280;47978;49.118;12.146;2023-08-31T10:09:04;97233.28;;;17.38;64.92
62025;BME280;47978;49.118;12.146;2023-08-31T10:13:06;97229.28;;;17.23;63.34
62025;BME280;47978;49.118;12.146;2023-08-31T10:17:10;97233.03;;;18.03;63.30
62025;BME280;47978;49.118;12.146;2023-08-31T10:21:12;97233.31;;;17.97;61.42
62025;BME280;47978;49.118;12.146;2023-08-31T10:25:17;97227.84;;;17.57;62.36
62025;BME280;47978;49.118;12.146;2023-08-31T10:29:27;97221.53;;;17.60;62.74
62025;BME280;47978;49.118;12.146;2023-08-31T10:33:33;97233.47;;;17.89;61.57
62025;BME280;47978;49.118;12.146;2023-08-31T10:37:35;97223.72;;;18.30;59.35
62025;BME280;47978;49.118;12.146;2023-08-31T10:41:36;97223.06;;;17.58;58.41
62025;BME280;47978;49.118;12.146;2023-08-31T10:45:43;97224.09;;;17.37;60.96
62025;BME280;47978;49.118;12.146;2023-08-31T10:49:51;97223.09;;;17.29;60.18
62025;BME280;47978;49.118;12.146;2023-08-31T10:54:04;97226.81;;;17.34;60.96
62025;BME280;47978;49.118;12.146;2023-08-31T10:58:09;97209.03;;;17.86;60.69
62025;BME280;47978;49.118;12.146;2023-08-31T11:02:30;97217.47;;;18.21;58.38
62025;BME280;47978;49.118;12.146;2023-08-31T11:06:33;97211.09;;;17.89;59.04
62025;BME280;47978;49.118;12.146;2023-08-31T11:10:34;97208.88;;;18.30;58.33
62025;BME280;47978;49.118;12.146;2023-08-31T11:14:36;97213.75;;;17.82;57.38
62025;BME280;47978;49.118;12.146;2023-08-31T11:18:38;97222.50;;;17.52;59.01
62025;BME280;47978;49.118;12.146;2023-08-31T11:22:42;97221.28;;;17.81;59.92
62025;BME280;47978;49.118;12.146;2023-08-31T11:26:44;97210.47;;;18.11;60.42
62025;BME280;47978;49.118;12.146;2023-08-31T11:30:48;97216.81;;;18.43;59.34
62025;BME280;47978;49.118;12.146;2023-08-31T11:34:50;97221.47;;;18.55;57.47
62025;BME280;47978;49.118;12.146;2023-08-31T11:38:54;97219.88;;;18.54;56.87
62025;BME280;47978;49.118;12.146;2023-08-31T11:42:56;97206.75;;;18.58;58.42
62025;BME280;47978;49.118;12.146;2023-08-31T11:46:59;97210.91;;;18.64;57.58
62025;BME280;47978;49.118;12.146;2023-08-31T11:51:00;97218.19;;;18.34;58.00
62025;BME280;47978;49.118;12.146;2023-08-31T11:55:10;97210.41;;;18.43;57.22
62025;BME280;47978;49.118;12.146;2023-08-31T11:59:14;97207.84;;;18.54;54.57
62025;BME280;47978;49.118;12.146;2023-08-31T12:03:16;97212.16;;;18.67;51.91
62025;BME280;47978;49.118;12.146;2023-08-31T12:07:18;97215.50;;;18.73;52.47
62025;BME280;47978;49.118;12.146;2023-08-31T12:11:21;97209.84;;;18.53;50.89
62025;BME280;47978;49.118;12.146;2023-08-31T12:15:30;97214.13;;;18.82;51.92
62025;BME280;47978;49.118;12.146;2023-08-31T12:19:32;97213.19;;;18.59;49.85
62025;BME280;47978;49.118;12.146;2023-08-31T12:23:34;97207.34;;;18.48;49.39
62025;BME280;47978;49.118;12.146;2023-08-31T12:27:37;97212.69;;;18.73;48.31
62025;BME280;47978;49.118;12.146;2023-08-31T12:31:38;97222.38;;;18.95;49.82
62025;BME280;47978;49.118;12.146;2023-08-31T12:35:40;97217.94;;;18.74;47.46
62025;BME280;47978;49.118;12.146;2023-08-31T12:39:42;97217.94;;;18.74;47.50
62025;BME280;47978;49.118;12.146;2023-08-31T12:43:45;97221.44;;;18.87;46.61
62025;BME280;47978;49.118;12.146;2023-08-31T12:47:46;97228.44;;;18.61;48.89
62025;BME280;47978;49.118;12.146;2023-08-31T12:51:49;97227.28;;;18.47;50.21
62025;BME280;47978;49.118;12.146;2023-08-31T12:55:50;97228.25;;;18.70;50.32
62025;BME280;47978;49.118;12.146;2023-08-31T12:59:53;97221.06;;;18.88;47.91
62025;BME280;47978;49.118;12.146;2023-08-31T13:03:55;97223.34;;;19.02;47.23
62025;BME280;47978;49.118;12.146;2023-08-31T13:07:56;97218.09;;;19.20;46.84
62025;BME280;47978;49.118;12.146;2023-08-31T13:11:58;97225.66;;;19.59;47.61
62025;BME280;47978;49.118;12.146;2023-08-31T13:16:01;97215.16;;;19.75;47.79
62025;BME280;47978;49.118;12.146;2023-08-31T13:20:02;97228.56;;;19.43;48.10
62025;BME280;47978;49.118;12.146;2023-08-31T13:24:04;97228.84;;;19.38;49.14
62025;BME280;47978;49.118;12.146;2023-08-31T13:28:06;97222.78;;;19.13;49.35
62025;BME280;47978;49.118;12.146;2023-08-31T13:32:09;97231.44;;;19.46;51.49
62025;BME280;47978;49.118;12.146;2023-08-31T13:36:11;97218.69;;;19.29;49.70
62025;BME280;47978;49.118;12.146;2023-08-31T13:40:12;97240.31;;;18.90;52.45
62025;BME280;47978;49.118;12.146;2023-08-31T13:44:14;97235.72;;;18.82;51.28
62025;BME280;47978;49.118;12.146;2023-08-31T13:48:18;97232.81;;;18.78;49.05
62025;BME280;47978;49.118;12.146;2023-08-31T13:52:19;97233.25;;;19.16;51.32
62025;BME280;47978;49.118;12.146;2023-08-31T13:56:21;97239.44;;;19.87;50.44
62025;BME280;47978;49.118;12.146;2023-08-31T14:00:22;97253.94;;;19.69;48.75
62025;BME280;47978;49.118;12.146;2023-08-31T14:04:25;97246.69;;;19.49;50.08
62025;BME280;47978;49.118;12.146;2023-08-31T14:08:26;97238.63;;;19.05;50.28
62025;BME280;47978;49.118;12.146;2023-08-31T14:12:28;97233.94;;;18.74;51.09
62025;BME280;47978;49.118;12.146;2023-08-31T14:16:30;97230.59;;;18.68;52.19
62025;BME280;47978;49.118;12.146;2023-08-31T14:20:33;97234.66;;;18.71;51.74
62025;BME280;47978;49.118;12.146;2023-08-31T14:24:35;97231.22;;;18.77;51.23
62025;BME280;47978;49.118;12.146;2023-08-31T14:28:37;97228.53;;;18.65;51.30
62025;BME280;47978;49.118;12.146;2023-08-31T14:32:38;97223.84;;;18.88;51.77
62025;BME280;47978;49.118;12.146;2023-08-31T14:36:41;97228.47;;;18.81;51.47
62025;BME280;47978;49.118;12.146;2023-08-31T14:40:42;97222.81;;;18.77;51.97
62025;BME280;47978;49.118;12.146;2023-08-31T14:44:45;97234.75;;;18.74;51.45
62025;BME280;47978;49.118;12.146;2023-08-31T14:48:46;97232.47;;;18.64;51.03
62025;BME280;47978;49.118;12.146;2023-08-31T14:52:50;97240.94;;;18.48;49.01
62025;BME280;47978;49.118;12.146;2023-08-31T14:56:51;97249.16;;;18.41;49.91
62025;BME280;47978;49.118;12.146;2023-08-31T15:00:55;97241.25;;;18.62;50.47
62025;BME280;47978;49.118;12.146;2023-08-31T15:04:57;97246.94;;;18.82;48.86
62025;BME280;47978;49.118;12.146;2023-08-31T15:08:59;97255.28;;;18.47;48.44
62025;BME280;47978;49.118;12.146;2023-08-31T15:13:01;97259.59;;;18.60;50.53
62025;BME280;47978;49.118;12.146;2023-08-31T15:17:03;97246.88;;;18.62;50.65
62025;BME280;47978;49.118;12.146;2023-08-31T15:21:04;97251.81;;;18.69;50.17
62025;BME280;47978;49.118;12.146;2023-08-31T15:25:08;97246.34;;;18.92;50.42
62025;BME280;47978;49.118;12.146;2023-08-31T15:29:09;97256.06;;;18.79;49.01
62025;BME280;47978;49.118;12.146;2023-08-31T15:33:11;97248.41;;;18.44;49.25
62025;BME280;47978;49.118;12.146;2023-08-31T15:37:12;97250.44;;;18.28;52.55
62025;BME280;47978;49.118;12.146;2023-08-31T15:41:15;97245.28;;;18.46;52.28
62025;BME280;47978;49.118;12.146;2023-08-31T15:45:17;97248.31;;;18.56;51.28
62025;BME280;47978;49.118;12.146;2023-08-31T15:49:18;97246.59;;;18.68;51.96
62025;BME280;47978;49.118;12.146;2023-08-31T15:53:20;97248.75;;;18.58;50.53
62025;BME280;47978;49.118;12.146;2023-08-31T15:57:23;97243.69;;;18.64;51.95
62025;BME280;47978;49.118;12.146;2023-08-31T16:01:24;97251.13;;;18.56;51.66
62025;BME280;47978;49.118;12.146;2023-08-31T16:05:26;97258.53;;;18.49;51.54
62025;BME280;47978;49.118;12.146;2023-08-31T16:09:27;97254.03;;;18.44;52.01
62025;BME280;47978;49.118;12.146;2023-08-31T16:13:30;97251.75;;;18.50;53.08
62025;BME280;47978;49.118;12.146;2023-08-31T16:17:32;97249.72;;;18.31;53.12
62025;BME280;47978;49.118;12.146;2023-08-31T16:21:33;97253.88;;;18.37;52.18
62025;BME280;47978;49.118;12.146;2023-08-31T16:25:35;97256.31;;;18.23;53.56
62025;BME280;47978;49.118;12.146;2023-08-31T16:29:38;97256.47;;;18.30;52.28
62025;BME280;47978;49.118;12.146;2023-08-31T16:33:39;97251.19;;;18.25;51.44
62025;BME280;47978;49.118;12.146;2023-08-31T16:41:48;97259.66;;;18.12;55.04
62025;BME280;47978;49.118;12.146;2023-08-31T16:45:53;97258.34;;;17.62;53.17
62025;BME280;47978;49.118;12.146;2023-08-31T16:49:58;97267.47;;;17.75;53.90
62025;BME280;47978;49.118;12.146;2023-08-31T16:53:59;97262.41;;;17.65;54.91
62025;BME280;47978;49.118;12.146;2023-08-31T16:58:01;97261.78;;;17.71;55.83
62025;BME280;47978;49.118;12.146;2023-08-31T17:02:04;97252.19;;;17.72;55.13
62025;BME280;47978;49.118;12.146;2023-08-31T17:06:06;97250.53;;;17.40;55.90
62025;BME280;47978;49.118;12.146;2023-08-31T17:10:08;97245.03;;;17.15;62.67
62025;BME280;47978;49.118;12.146;2023-08-31T17:14:10;97257.75;;;15.86;68.61
62025;BME280;47978;49.118;12.146;2023-08-31T17:18:13;97258.75;;;15.69;72.62
62025;BME280;47978;49.118;12.146;2023-08-31T17:22:15;97255.72;;;15.08;77.91
62025;BME280;47978;49.118;12.146;2023-08-31T17:26:20;97254.66;;;14.79;79.14
62025;BME280;47978;49.118;12.146;2023-08-31T17:30:22;97250.22;;;14.66;81.79
62025;BME280;47978;49.118;12.146;2023-08-31T17:34:25;97254.06;;;14.53;82.72
62025;BME280;47978;49.118;12.146;2023-08-31T17:38:27;97259.56;;;14.32;83.99
62025;BME280;47978;49.118;12.146;2023-08-31T17:42:28;97259.91;;;14.01;86.69
62025;BME280;47978;49.118;12.146;2023-08-31T17:46:30;97270.59;;;13.81;88.25
62025;BME280;47978;49.118;12.146;2023-08-31T17:50:33;97273.28;;;13.69;89.32
62025;BME280;47978;49.118;12.146;2023-08-31T17:54:34;97274.88;;;13.70;90.22
62025;BME280;47978;49.118;12.146;2023-08-31T17:58:36;97284.56;;;13.64;91.07
62025;BME280;47978;49.118;12.146;2023-08-31T18:02:37;97287.69;;;13.54;92.17
62025;BME280;47978;49.118;12.146;2023-08-31T18:06:41;97287.56;;;13.41;92.67
62025;BME280;47978;49.118;12.146;2023-08-31T18:10:42;97293.28;;;13.27;94.38
62025;BME280;47978;49.118;12.146;2023-08-31T18:14:44;97293.13;;;13.15;95.58
62025;BME280;47978;49.118;12.146;2023-08-31T18:18:45;97288.69;;;13.05;95.73
62025;BME280;47978;49.118;12.146;2023-08-31T18:22:48;97296.38;;;13.00;97.00
62025;BME280;47978;49.118;12.146;2023-08-31T18:26:50;97303.38;;;12.89;97.42
62025;BME280;47978;49.118;12.146;2023-08-31T18:30:53;97312.50;;;12.80;97.17
62025;BME280;47978;49.118;12.146;2023-08-31T18:34:54;97311.91;;;12.83;96.44
62025;BME280;47978;49.118;12.146;2023-08-31T18:38:58;97312.19;;;12.82;96.89
62025;BME280;47978;49.118;12.146;2023-08-31T18:42:59;97321.34;;;12.91;95.30
62025;BME280;47978;49.118;12.146;2023-08-31T18:47:01;97317.44;;;12.92;96.04
62025;BME280;47978;49.118;12.146;2023-08-31T18:51:02;97325.44;;;12.94;95.69
62025;BME280;47978;49.118;12.146;2023-08-31T18:55:06;97327.69;;;12.83;97.65
62025;BME280;47978;49.118;12.146;2023-08-31T18:59:08;97331.13;;;12.89;97.95
62025;BME280;47978;49.118;12.146;2023-08-31T19:03:10;97338.34;;;12.90;97.87
62025;BME280;47978;49.118;12.146;2023-08-31T19:07:11;97346.47;;;12.86;98.04
62025;BME280;47978;49.118;12.146;2023-08-31T19:11:14;97336.88;;;12.83;98.64
62025;BME280;47978;49.118;12.146;2023-08-31T19:15:16;97343.38;;;12.79;98.64
62025;BME280;47978;49.118;12.146;2023-08-31T19:19:19;97346.97;;;12.79;98.38
62025;BME280;47978;49.118;12.146;2023-08-31T19:23:20;97350.03;;;12.69;99.18
62025;BME280;47978;49.118;12.146;2023-08-31T19:27:23;97359.84;;;12.67;99.58
62025;BME280;47978;49.118;12.146;2023-08-31T19:31:25;97358.69;;;12.59;99.38
62025;BME280;47978;49.118;12.146;2023-08-31T19:35:26;97368.94;;;12.50;100.00
62025;BME280;47978;49.118;12.146;2023-08-31T19:39:31;97370.03;;;12.40;100.00
62025;BME280;47978;49.118;12.146;2023-08-31T19:43:34;97371.19;;;12.39;100.00
62025;BME280;47978;49.118;12.146;2023-08-31T19:47:35;97372.50;;;12.42;100.00
62025;BME280;47978;49.118;12.146;2023-08-31T19:51:37;97370.03;;;12.40;100.00
62025;BME280;47978;49.118;12.146;2023-08-31T19:55:38;97365.31;;;12.49;100.00
62025;BME280;47978;49.118;12.146;2023-08-31T19:59:41;97370.25;;;12.52;100.00
62025;BME280;47978;49.118;12.146;2023-08-31T20:03:43;97371.53;;;12.55;100.00
62025;BME280;47978;49.118;12.146;2023-08-31T20:07:45;97372.53;;;12.59;100.00
62025;BME280;47978;49.118;12.146;2023-08-31T20:11:46;97377.94;;;12.64;99.95
62025;BME280;47978;49.118;12.146;2023-08-31T20:15:49;97370.59;;;12.59;100.00
62025;BME280;47978;49.118;12.146;2023-08-31T20:19:51;97362.09;;;12.56;100.00
62025;BME280;47978;49.118;12.146;2023-08-31T20:23:52;97371.41;;;12.60;98.96
62025;BME280;47978;49.118;12.146;2023-08-31T20:27:54;97361.59;;;12.54;100.00
62025;BME280;47978;49.118;12.146;2023-08-31T20:31:57;97357.66;;;12.46;100.00
62025;BME280;47978;49.118;12.146;2023-08-31T20:36:03;97379.06;;;12.54;100.00
62025;BME280;47978;49.118;12.146;2023-08-31T20:40:06;97379.25;;;12.58;100.00
62025;BME280;47978;49.118;12.146;2023-08-31T20:44:07;97388.69;;;12.57;100.00
62025;BME280;47978;49.118;12.146;2023-08-31T20:48:10;97396.16;;;12.48;100.00
62025;BME280;47978;49.118;12.146;2023-08-31T20:52:12;97402.69;;;12.52;100.00
62025;BME280;47978;49.118;12.146;2023-08-31T20:56:17;97399.78;;;12.57;100.00
62025;BME280;47978;49.118;12.146;2023-08-31T21:00:19;97406.16;;;12.66;100.00
62025;BME280;47978;49.118;12.146;2023-08-31T21:04:22;97414.97;;;12.59;100.00